Pitt, Minnesota
Current Conditions -  °F | °C
As of 4:53 PM on Wednesday 17 Dec 2014 (Local Time) from KBDE Reporting Station
Clear Clear  
Wind Chill:   Ceiling: Unl
Heat Index: 13°   Visibility: 10mi
Dew Point:   Wind: 6mph
Humidity: 77%   Direction: 340°NNW
Pressure: 30.31"   Gusts: NA
Location:  48.5595°N, 94.661°W
Report Text: KBDE 172253Z AUTO 34005KT 10SM CLR M11/M14 A3031 RMK AO2 SLP290 T11061139 TSNO
Loading
Personal Weather Stations






























Interactive Weather Map New forecast layout! Learn more

10-Day Weather Forecast

Advertisements
Track Severe Weather on mobile